Time;durP1;ratioP1;P1;durP2;ratioP2;P2;SDS_P1;SDS_P2;PMS_P1;PMS_P2;Temp;Humidity;BMP_temperature;BMP_pressure;BME280_temperature;BME280_humidity;BME280_pressure;Samples;Min_cycle;Max_cycle;Signal;HPM_P1;HPM_P2
2024/03/31 00:00:30;;;;;;;8.33;3.67;;;;;;;9.48;100.00;100285.13;5035952;28;20225;-72
2024/03/31 00:02:56;;;;;;;7.40;3.63;;;;;;;8.68;100.00;100187.03;5017005;28;20196;-72
2024/03/31 00:05:21;;;;;;;7.73;3.47;;;;;;;9.26;100.00;100243.53;5016530;28;20488;-72
2024/03/31 00:07:47;;;;;;;7.17;3.77;;;;;;;9.53;100.00;100272.97;5036862;28;20664;-72
2024/03/31 00:10:12;;;;;;;8.20;3.90;;;;;;;9.61;100.00;100286.19;5037132;28;20558;-72
2024/03/31 00:12:38;;;;;;;8.67;4.60;;;;;;;9.64;100.00;100305.31;5037026;28;20203;-73
2024/03/31 00:15:03;;;;;;;7.40;3.60;;;;;;;9.50;100.00;100299.13;5037281;28;20362;-72
2024/03/31 00:17:29;;;;;;;8.50;4.30;;;;;;;8.67;100.00;100201.44;5037166;28;20270;-72
2024/03/31 00:19:54;;;;;;;8.67;4.53;;;;;;;8.97;100.00;100223.31;5035814;28;20337;-72
2024/03/31 00:22:20;;;;;;;14.00;6.33;;;;;;;9.23;100.00;100266.16;5036429;28;20215;-72
2024/03/31 00:24:45;;;;;;;13.23;6.60;;;;;;;9.13;100.00;100238.97;5035472;28;20635;-72
2024/03/31 00:27:11;;;;;;;13.67;6.83;;;;;;;9.41;100.00;100310.25;5036434;28;20271;-73
2024/03/31 00:29:37;;;;;;;13.07;7.00;;;;;;;8.80;100.00;100213.00;5037467;28;20191;-72
2024/03/31 00:32:03;;;;;;;11.70;6.57;;;;;;;9.45;100.00;100292.75;5034834;28;20446;-73
2024/03/31 00:34:28;;;;;;;13.90;7.40;;;;;;;8.82;100.00;100212.78;5035333;28;20249;-72
2024/03/31 00:36:54;;;;;;;11.80;6.50;;;;;;;8.90;100.00;100217.13;5034302;28;20966;-72
2024/03/31 00:39:19;;;;;;;12.47;6.10;;;;;;;8.30;100.00;100124.22;5017812;28;20581;-73
2024/03/31 00:41:45;;;;;;;9.30;5.63;;;;;;;9.22;100.00;100250.31;5034214;28;20200;-72
2024/03/31 00:44:10;;;;;;;9.80;4.77;;;;;;;9.19;100.00;100259.56;5036410;28;20184;-72
2024/03/31 00:46:35;;;;;;;8.97;3.83;;;;;;;9.71;100.00;100283.88;5037353;28;20554;-72
2024/03/31 00:49:01;;;;;;;8.83;4.33;;;;;;;9.81;100.00;100283.50;5036172;28;20191;-72
2024/03/31 00:51:26;;;;;;;7.20;3.60;;;;;;;9.40;100.00;100193.47;5018855;28;20241;-72
2024/03/31 00:53:52;;;;;;;7.13;3.73;;;;;;;9.54;100.00;100256.69;5018058;28;20761;-72
2024/03/31 00:56:18;;;;;;;8.77;4.10;;;;;;;9.90;100.00;100258.13;5036587;28;20649;-73
2024/03/31 00:58:43;;;;;;;9.67;4.80;;;;;;;9.04;100.00;100166.13;5035441;28;20191;-73
2024/03/31 01:01:11;;;;;;;8.40;4.90;;;;;;;9.64;100.00;100257.13;5034468;28;20188;-72
2024/03/31 01:03:37;;;;;;;10.20;5.57;;;;;;;8.93;100.00;100176.59;5034091;28;20218;-72
2024/03/31 01:06:09;;;;;;;10.33;5.63;;;;;;;9.02;100.00;100207.47;5035760;28;20509;-72
2024/03/31 01:08:35;;;;;;;34.97;5.63;;;;;;;9.39;100.00;100280.19;5035674;28;20442;-73
2024/03/31 01:11:00;;;;;;;10.30;6.13;;;;;;;9.03;100.00;100231.34;5035721;28;20438;-72
2024/03/31 01:13:26;;;;;;;10.07;6.17;;;;;;;8.80;100.00;100196.13;5017113;28;20184;-72
2024/03/31 01:15:52;;;;;;;11.47;5.93;;;;;;;8.79;100.00;100200.66;5036494;28;20215;-72
2024/03/31 01:18:17;;;;;;;14.43;6.90;;;;;;;8.54;100.00;100178.19;5036493;28;20192;-72
2024/03/31 01:20:43;;;;;;;12.07;7.20;;;;;;;9.07;100.00;100279.91;5035131;28;20184;-72
2024/03/31 01:23:10;;;;;;;12.87;7.80;;;;;;;8.90;100.00;100271.44;5034188;28;20212;-72
2024/03/31 01:25:36;;;;;;;14.97;8.00;;;;;;;9.08;100.00;100283.41;5023377;28;20190;-73
2024/03/31 01:28:02;;;;;;;15.07;7.47;;;;;;;9.30;100.00;100295.59;5017329;28;20506;-72
2024/03/31 01:30:28;;;;;;;13.20;8.00;;;;;;;8.35;100.00;100134.28;5033661;28;20439;-72
2024/03/31 01:32:53;;;;;;;11.97;7.93;;;;;;;8.59;100.00;100184.56;5035692;28;20950;-72
2024/03/31 01:35:19;;;;;;;12.93;7.57;;;;;;;8.87;100.00;100244.28;5035198;28;20680;-72
2024/03/31 01:37:51;;;;;;;15.83;9.20;;;;;;;9.21;100.00;100254.84;5036474;28;20191;-72
2024/03/31 01:40:17;;;;;;;16.90;10.37;;;;;;;8.46;100.00;100130.25;5008319;28;20188;-72
2024/03/31 01:42:44;;;;;;;16.93;10.50;;;;;;;9.15;100.00;100249.47;5023242;28;20438;-72
2024/03/31 01:45:13;;;;;;;17.40;10.40;;;;;;;8.18;100.00;100159.72;5016661;28;20434;-73
2024/03/31 01:47:39;;;;;;;16.57;9.30;;;;;;;8.83;100.00;100255.38;5034494;28;20435;-73
2024/03/31 01:50:05;;;;;;;15.17;8.50;;;;;;;8.70;100.00;100247.31;5017452;28;20783;-72
2024/03/31 01:52:30;;;;;;;12.90;8.50;;;;;;;8.54;100.00;100247.69;5035886;28;20215;-73
2024/03/31 01:54:56;;;;;;;11.60;7.10;;;;;;;8.06;100.00;100154.94;5015885;28;20815;-72
2024/03/31 01:57:21;;;;;;;11.67;6.00;;;;;;;8.56;100.00;100251.81;5013525;28;20284;-72
2024/03/31 01:59:47;;;;;;;8.80;5.63;;;;;;;8.20;100.00;100224.47;5035874;28;20181;-72
2024/03/31 02:02:12;;;;;;;9.40;5.57;;;;;;;8.41;100.00;100256.44;5035546;28;20215;-72
2024/03/31 02:04:37;;;;;;;8.60;5.30;;;;;;;8.22;100.00;100225.09;5035316;28;20242;-72
2024/03/31 02:07:03;;;;;;;8.47;4.70;;;;;;;7.75;100.00;100155.41;5039525;28;20652;-72
2024/03/31 02:09:28;;;;;;;10.67;5.10;;;;;;;7.98;100.00;100176.47;5038991;28;20600;-72
2024/03/31 02:11:54;;;;;;;9.67;5.87;;;;;;;7.78;100.00;100171.06;5033646;28;20260;-72
2024/03/31 02:14:20;;;;;;;10.57;6.10;;;;;;;8.22;100.00;100244.63;5018403;28;20191;-72
2024/03/31 02:16:46;;;;;;;8.83;5.13;;;;;;;7.37;100.00;100125.63;5018284;28;20657;-73
2024/03/31 02:19:12;;;;;;;8.60;5.60;;;;;;;7.67;100.00;100196.44;5035838;28;20801;-73
2024/03/31 02:21:37;;;;;;;10.97;6.10;;;;;;;7.82;100.00;100225.69;5034473;28;21447;-72
2024/03/31 02:24:04;;;;;;;13.90;6.47;;;;;;;7.83;100.00;100235.34;5034899;28;20488;-72
2024/03/31 02:26:29;;;;;;;10.90;7.00;;;;;;;7.99;100.00;100271.63;5023404;28;20661;-72
2024/03/31 02:28:55;;;;;;;13.37;8.60;;;;;;;7.91;100.00;100271.75;5037645;28;20431;-72
2024/03/31 02:31:21;;;;;;;13.40;8.20;;;;;;;7.56;100.00;100231.69;5021227;28;20227;-72
2024/03/31 02:33:46;;;;;;;12.17;8.03;;;;;;;7.56;100.00;100228.19;5018283;28;20632;-72
2024/03/31 02:36:11;;;;;;;12.77;8.07;;;;;;;7.89;100.00;100295.97;5037813;28;20465;-72
2024/03/31 02:38:37;;;;;;;13.67;7.90;;;;;;;7.41;100.00;100207.75;5038013;28;20187;-72
2024/03/31 02:41:03;;;;;;;12.27;7.57;;;;;;;7.87;100.00;100286.53;5019534;28;20184;-72
2024/03/31 02:43:28;;;;;;;11.63;7.37;;;;;;;7.42;100.00;100217.41;5037797;28;20515;-72
2024/03/31 02:45:54;;;;;;;10.83;7.23;;;;;;;7.42;100.00;100256.59;5038541;28;20190;-72
2024/03/31 02:48:19;;;;;;;11.60;7.20;;;;;;;7.72;100.00;100305.28;5038132;28;20184;-72
2024/03/31 02:50:48;;;;;;;12.10;8.60;;;;;;;7.07;100.00;100200.50;5038507;28;20659;-72
2024/03/31 02:53:13;;;;;;;12.13;8.40;;;;;;;7.43;100.00;100240.41;5038331;28;20214;-72
2024/03/31 02:55:39;;;;;;;13.90;7.60;;;;;;;7.68;100.00;100280.00;5037625;28;20478;-72
2024/03/31 02:58:04;;;;;;;12.20;7.97;;;;;;;7.07;100.00;100186.34;5037912;28;20231;-72
2024/03/31 03:00:30;;;;;;;17.60;9.60;;;;;;;7.69;100.00;100261.16;5039258;28;20249;-72
2024/03/31 03:02:55;;;;;;;19.90;11.90;;;;;;;7.10;100.00;100183.28;5018924;28;20204;-72
2024/03/31 03:05:21;;;;;;;14.57;10.10;;;;;;;7.77;100.00;100268.16;5019046;28;20184;-72
2024/03/31 03:07:46;;;;;;;14.40;10.27;;;;;;;7.64;100.00;100214.69;5037527;28;20195;-72
2024/03/31 03:10:11;;;;;;;14.00;8.77;;;;;;;7.72;100.00;100273.25;5036114;28;21761;-72
2024/03/31 03:12:37;;;;;;;13.83;8.90;;;;;;;7.36;100.00;100225.34;5038740;28;20208;-72
2024/03/31 03:15:03;;;;;;;13.63;9.00;;;;;;;7.47;100.00;100247.00;5019980;28;20208;-72
2024/03/31 03:17:28;;;;;;;13.13;7.80;;;;;;;6.98;100.00;100161.66;5037737;28;20187;-72
2024/03/31 03:19:53;;;;;;;11.17;7.33;;;;;;;7.76;100.00;100290.56;5037025;28;20188;-72
2024/03/31 03:22:19;;;;;;;14.53;7.70;;;;;;;7.57;100.00;100281.34;5021046;28;20249;-72
2024/03/31 03:24:45;;;;;;;12.50;8.03;;;;;;;7.24;100.00;100259.72;5019218;28;20284;-72
2024/03/31 03:27:10;;;;;;;10.60;7.00;;;;;;;6.99;100.00;100200.63;5037343;28;20189;-72
2024/03/31 03:29:36;;;;;;;14.20;9.00;;;;;;;6.87;100.00;100149.66;5037143;28;20458;-72
2024/03/31 03:32:01;;;;;;;12.43;8.47;;;;;;;7.60;100.00;100251.59;5036906;28;20262;-72
2024/03/31 03:34:26;;;;;;;14.63;9.60;;;;;;;7.31;100.00;100201.91;5038544;28;20192;-72
2024/03/31 03:36:52;;;;;;;14.77;10.00;;;;;;;7.46;100.00;100261.38;5037406;28;20220;-72
2024/03/31 03:39:18;;;;;;;18.40;10.50;;;;;;;7.01;100.00;100180.75;5036215;28;20176;-72
2024/03/31 03:41:44;;;;;;;18.97;10.63;;;;;;;7.46;100.00;100272.03;5017963;28;20474;-72
2024/03/31 03:44:10;;;;;;;18.07;12.23;;;;;;;7.02;100.00;100197.56;5019460;28;20542;-72
2024/03/31 03:46:35;;;;;;;18.27;11.73;;;;;;;7.46;100.00;100264.03;5033994;28;20435;-72
2024/03/31 03:49:01;;;;;;;20.93;11.23;;;;;;;7.74;100.00;100300.59;5017867;28;20681;-72
2024/03/31 03:51:26;;;;;;;18.10;10.73;;;;;;;7.90;100.00;100302.16;5037031;28;20211;-72
2024/03/31 03:53:52;;;;;;;18.67;12.33;;;;;;;7.95;100.00;100282.88;5036407;28;20241;-72
2024/03/31 03:56:17;;;;;;;19.03;12.00;;;;;;;7.29;100.00;100163.94;5037261;28;20215;-72
2024/03/31 03:58:44;;;;;;;20.20;10.90;;;;;;;7.87;100.00;100260.66;5037477;28;20180;-72
2024/03/31 04:01:10;;;;;;;21.53;11.23;;;;;;;7.58;100.00;100237.66;5015691;28;20176;-72
2024/03/31 04:03:35;;;;;;;16.27;11.07;;;;;;;7.32;100.00;100179.56;5037141;28;20438;-72
2024/03/31 04:06:01;;;;;;;19.27;11.70;;;;;;;7.43;100.00;100165.69;5036508;28;20567;-72
2024/03/31 04:08:26;;;;;;;17.43;11.10;;;;;;;7.74;100.00;100198.31;5037590;28;20529;-72
2024/03/31 04:10:51;;;;;;;21.27;12.63;;;;;;;8.01;100.00;100255.38;5037746;28;20188;-72
2024/03/31 04:13:17;;;;;;;21.73;13.93;;;;;;;7.96;100.00;100215.94;5037370;28;20662;-72
2024/03/31 04:15:42;;;;;;;20.07;14.50;;;;;;;7.78;100.00;100135.50;5037800;28;20594;-72
2024/03/31 04:18:08;;;;;;;23.40;15.03;;;;;;;7.56;100.00;100097.41;5037562;28;20191;-72
2024/03/31 04:20:42;;;;;;;22.57;15.23;;;;;;;8.23;100.00;100184.81;5038152;28;20784;-73
2024/03/31 04:23:08;;;;;;;24.00;14.70;;;;;;;7.83;100.00;100151.75;5037279;28;20439;-72
2024/03/31 04:25:33;;;;;;;20.60;14.43;;;;;;;8.26;100.00;100215.66;5038251;28;20441;-72
2024/03/31 04:27:59;;;;;;;18.10;12.60;;;;;;;8.12;100.00;100225.44;5041693;28;20214;-72
2024/03/31 04:30:24;;;;;;;20.10;13.40;;;;;;;8.15;100.00;100227.72;5043842;28;20437;-72
2024/03/31 04:32:50;;;;;;;22.50;13.63;;;;;;;7.90;100.00;100212.19;5036346;28;20216;-72
2024/03/31 04:35:15;;;;;;;17.77;12.63;;;;;;;7.54;100.00;100126.94;5037241;28;20250;-73
2024/03/31 04:37:41;;;;;;;20.73;13.47;;;;;;;7.61;100.00;100185.72;5018367;28;20286;-72
2024/03/31 04:40:07;;;;;;;19.83;13.80;;;;;;;8.02;100.00;100259.72;5035558;28;20701;-72
2024/03/31 04:42:32;;;;;;;20.70;15.60;;;;;;;8.09;100.00;100268.59;5038702;28;20684;-72
2024/03/31 04:44:58;;;;;;;19.37;14.27;;;;;;;8.10;100.00;100264.88;5036818;28;20435;-72
2024/03/31 04:47:27;;;;;;;20.70;13.90;;;;;;;7.87;100.00;100241.97;5018693;28;20214;-72
2024/03/31 04:49:52;;;;;;;17.50;12.30;;;;;;;7.76;100.00;100229.16;5017117;28;20296;-72
2024/03/31 04:52:18;;;;;;;20.73;12.27;;;;;;;8.19;100.00;100271.75;5036461;28;21038;-72
2024/03/31 04:54:44;;;;;;;14.33;11.30;;;;;;;7.63;100.00;100160.47;5035850;28;20198;-72
2024/03/31 04:57:09;;;;;;;14.70;9.97;;;;;;;8.14;100.00;100229.56;5018829;28;20180;-72
2024/03/31 04:59:35;;;;;;;16.47;9.33;;;;;;;8.24;100.00;100242.56;5019555;28;20435;-72
2024/03/31 05:02:01;;;;;;;12.90;8.67;;;;;;;8.29;100.00;100250.81;5034729;28;20614;-72
2024/03/31 05:04:26;;;;;;;13.03;7.90;;;;;;;8.22;100.00;100263.31;5018235;28;20239;-72
2024/03/31 05:06:52;;;;;;;12.00;6.77;;;;;;;8.18;100.00;100242.53;5036433;28;20435;-72
2024/03/31 05:09:17;;;;;;;12.77;6.73;;;;;;;8.08;100.00;100230.38;5034975;28;20180;-72
2024/03/31 05:11:43;;;;;;;10.30;6.90;;;;;;;8.30;100.00;100270.34;5016506;28;20295;-72
2024/03/31 05:14:08;;;;;;;11.77;6.30;;;;;;;8.40;100.00;100275.38;5016309;28;20206;-72
2024/03/31 05:16:33;;;;;;;9.90;6.10;;;;;;;8.29;100.00;100258.00;5038122;28;20227;-72
2024/03/31 05:18:59;;;;;;;10.23;5.90;;;;;;;8.03;100.00;100226.63;5035566;28;20656;-72
2024/03/31 05:21:25;;;;;;;8.97;5.30;;;;;;;8.17;100.00;100259.59;5034779;28;20204;-72
2024/03/31 05:23:50;;;;;;;10.10;5.53;;;;;;;7.69;100.00;100169.53;5018388;28;20207;-72
2024/03/31 05:26:16;;;;;;;8.83;5.37;;;;;;;7.98;100.00;100229.88;5018647;28;20925;-72
2024/03/31 05:28:41;;;;;;;10.93;5.30;;;;;;;8.17;100.00;100262.28;5035995;28;20555;-72
2024/03/31 05:31:07;;;;;;;8.50;4.93;;;;;;;7.68;100.00;100197.25;5034301;28;20195;-72
2024/03/31 05:33:32;;;;;;;7.93;5.10;;;;;;;7.75;100.00;100208.78;5017421;28;20625;-72
2024/03/31 05:35:58;;;;;;;7.10;4.70;;;;;;;8.40;100.00;100278.03;5036677;28;20208;-72
2024/03/31 05:38:23;;;;;;;6.43;3.93;;;;;;;7.63;100.00;100181.00;5035202;28;20249;-72
2024/03/31 05:40:49;;;;;;;5.90;3.60;;;;;;;8.40;100.00;100283.38;5035885;28;20191;-72
2024/03/31 05:43:14;;;;;;;7.33;4.10;;;;;;;8.36;100.00;100293.59;5036673;28;20208;-72
2024/03/31 05:45:40;;;;;;;6.27;3.77;;;;;;;8.41;100.00;100303.72;5017499;28;20347;-72
2024/03/31 05:48:09;;;;;;;7.03;3.87;;;;;;;8.32;100.00;100285.16;5023274;28;20179;-72
2024/03/31 05:50:36;;;;;;;7.97;4.03;;;;;;;7.64;100.00;100182.66;5035543;28;20421;-72
2024/03/31 05:53:02;;;;;;;6.83;3.40;;;;;;;8.40;100.00;100296.75;5035249;28;20459;-72
2024/03/31 05:55:30;;;;;;;6.63;4.10;;;;;;;8.21;100.00;100285.69;5016900;28;20473;-72
2024/03/31 05:57:56;;;;;;;6.10;3.60;;;;;;;7.69;100.00;100201.56;5034353;28;20427;-72
2024/03/31 06:00:21;;;;;;;9.23;3.90;;;;;;;8.21;100.00;100256.31;5037196;28;20484;-72
2024/03/31 06:02:47;;;;;;;6.80;3.67;;;;;;;8.36;100.00;100274.88;5039357;28;20230;-72
2024/03/31 06:05:12;;;;;;;6.80;3.80;;;;;;;8.11;100.00;100223.81;5038398;28;20180;-72
2024/03/31 06:07:38;;;;;;;6.23;3.07;;;;;;;8.47;100.00;100273.53;5040342;28;20610;-72
2024/03/31 06:10:04;;;;;;;6.20;3.30;;;;;;;8.43;100.00;100272.31;5039794;28;20180;-72
2024/03/31 06:12:29;;;;;;;6.47;3.60;;;;;;;8.18;100.00;100254.03;5040193;28;20199;-72
2024/03/31 06:14:54;;;;;;;7.70;3.70;;;;;;;8.39;100.00;100293.25;5040593;28;20511;-72
2024/03/31 06:17:20;;;;;;;6.10;3.80;;;;;;;7.86;100.00;100218.94;5038493;28;20203;-72
2024/03/31 06:19:46;;;;;;;8.10;4.30;;;;;;;8.53;100.00;100310.16;5039547;28;20649;-72
2024/03/31 06:22:11;;;;;;;8.10;4.20;;;;;;;7.83;100.00;100216.66;5036764;28;20196;-72
2024/03/31 06:24:37;;;;;;;7.40;3.90;;;;;;;8.59;100.00;100328.94;5040819;28;20188;-72
2024/03/31 06:27:02;;;;;;;7.17;4.60;;;;;;;8.50;100.00;100305.22;5038062;28;20596;-73
2024/03/31 06:29:28;;;;;;;14.80;7.97;;;;;;;8.51;100.00;100315.72;5020992;28;20230;-72
2024/03/31 06:31:53;;;;;;;13.40;7.20;;;;;;;8.65;100.00;100331.81;5019755;28;20214;-72
2024/03/31 06:34:19;;;;;;;11.70;7.10;;;;;;;8.18;100.00;100234.53;5037515;28;20223;-72
2024/03/31 06:36:44;;;;;;;10.80;6.47;;;;;;;8.36;100.00;100274.88;5039132;28;20204;-72
2024/03/31 06:39:10;;;;;;;11.77;6.80;;;;;;;8.30;100.00;100265.84;5037523;28;20183;-72
2024/03/31 06:41:35;;;;;;;8.53;5.33;;;;;;;8.31;100.00;100248.78;5018798;28;20204;-72
2024/03/31 06:44:00;;;;;;;8.23;5.23;;;;;;;8.26;100.00;100242.38;5039555;28;20226;-72
2024/03/31 06:46:26;;;;;;;7.30;5.10;;;;;;;8.38;100.00;100267.50;5022416;28;20275;-72
2024/03/31 06:48:51;;;;;;;8.03;4.73;;;;;;;8.05;100.00;100198.72;5041598;28;20188;-72
2024/03/31 06:51:17;;;;;;;7.00;4.57;;;;;;;8.24;100.00;100242.56;5042337;28;20195;-72
2024/03/31 06:53:42;;;;;;;7.70;4.60;;;;;;;8.71;100.00;100320.34;5018097;28;20188;-72
2024/03/31 06:56:07;;;;;;;8.60;5.00;;;;;;;8.57;100.00;100282.03;5037780;28;20212;-72
2024/03/31 06:58:33;;;;;;;7.43;4.90;;;;;;;8.62;100.00;100298.31;5039755;28;20188;-72
2024/03/31 07:01:00;;;;;;;7.70;5.30;;;;;;;8.75;100.00;100322.41;5019314;28;20191;-72
2024/03/31 07:03:26;;;;;;;8.70;5.00;;;;;;;8.20;100.00;100235.97;5039609;28;20184;-72
2024/03/31 07:05:51;;;;;;;8.60;5.30;;;;;;;7.92;100.00;100186.09;5039181;28;20419;-72
2024/03/31 07:08:17;;;;;;;8.60;5.77;;;;;;;8.80;100.00;100319.16;5037127;28;20436;-72
2024/03/31 07:10:42;;;;;;;8.70;5.67;;;;;;;8.34;100.00;100260.91;5038769;28;20703;-72
2024/03/31 07:13:08;;;;;;;8.40;5.73;;;;;;;8.10;100.00;100219.47;5039958;28;20206;-73
2024/03/31 07:15:33;;;;;;;9.20;6.17;;;;;;;8.48;100.00;100257.31;5037333;28;20571;-72
2024/03/31 07:18:09;;;;;;;8.47;5.10;;;;;;;8.91;100.00;100323.06;5017535;28;20184;-73
2024/03/31 07:20:36;;;;;;;9.27;5.40;;;;;;;8.57;100.00;100300.75;5038214;28;20186;-73
2024/03/31 07:23:03;;;;;;;7.40;5.07;;;;;;;8.65;100.00;100346.03;5019341;28;20446;-73
2024/03/31 07:25:29;;;;;;;7.90;4.97;;;;;;;8.63;100.00;100336.56;5039122;28;20452;-73
2024/03/31 07:27:54;;;;;;;9.47;5.40;;;;;;;8.65;100.00;100332.66;5034536;28;20454;-72
2024/03/31 07:30:20;;;;;;;11.17;5.80;;;;;;;8.53;100.00;100302.16;5017774;28;20460;-73
2024/03/31 07:32:45;;;;;;;7.90;5.33;;;;;;;8.41;100.00;100293.88;5041463;28;20257;-73
2024/03/31 07:35:11;;;;;;;8.73;5.80;;;;;;;8.57;100.00;100316.78;5042709;28;20216;-73
2024/03/31 07:37:36;;;;;;;8.70;5.93;;;;;;;8.27;100.00;100260.88;5044262;28;20194;-73
2024/03/31 07:40:02;;;;;;;8.93;5.70;;;;;;;8.87;100.00;100335.22;5042480;28;20553;-73
2024/03/31 07:42:28;;;;;;;7.70;4.53;;;;;;;8.59;100.00;100267.44;5039264;28;20264;-73
2024/03/31 07:44:53;;;;;;;8.13;5.03;;;;;;;8.96;100.00;100313.44;5035849;28;20900;-73
2024/03/31 07:47:19;;;;;;;9.20;5.00;;;;;;;8.77;100.00;100274.91;5036962;28;20187;-73
2024/03/31 07:49:44;;;;;;;8.57;5.20;;;;;;;8.75;100.00;100250.22;5037348;28;20203;-73
2024/03/31 07:52:09;;;;;;;7.67;4.97;;;;;;;9.24;100.00;100309.81;5035931;28;20203;-73
2024/03/31 07:54:35;;;;;;;7.07;4.40;;;;;;;8.93;100.00;100264.88;5035574;28;20199;-73
2024/03/31 07:57:00;;;;;;;10.00;4.87;;;;;;;9.16;100.00;100296.59;5035872;28;20551;-73
2024/03/31 07:59:26;;;;;;;8.20;5.03;;;;;;;8.76;100.00;100217.09;5037082;28;20229;-73
2024/03/31 08:01:53;;;;;;;8.40;5.30;;;;;;;9.23;100.00;100287.56;5035548;28;20235;-73
2024/03/31 08:04:19;;;;;;;8.70;5.00;;;;;;;8.51;100.00;100203.47;5018486;28;20201;-73
2024/03/31 08:06:44;;;;;;;7.40;4.90;;;;;;;9.08;100.00;100296.78;5025151;28;20427;-73
2024/03/31 08:09:10;;;;;;;8.77;4.80;;;;;;;9.23;100.00;100311.66;5036315;28;20434;-73
2024/03/31 08:11:35;;;;;;;7.67;4.67;;;;;;;8.91;100.00;100273.09;5037272;28;20199;-73
2024/03/31 08:14:00;;;;;;;6.73;4.30;;;;;;;8.60;100.00;100228.16;5036886;28;20176;-73
2024/03/31 08:16:26;;;;;;;8.87;4.10;;;;;;;8.77;100.00;100250.03;5037275;28;21729;-73
2024/03/31 08:18:52;;;;;;;6.93;4.17;;;;;;;9.25;100.00;100327.50;5036184;28;20897;-73
2024/03/31 08:21:18;;;;;;;8.53;4.47;;;;;;;9.18;100.00;100330.16;5016829;28;20202;-73
2024/03/31 08:23:43;;;;;;;7.40;4.83;;;;;;;9.08;100.00;100323.53;5017853;28;20431;-73
2024/03/31 08:26:08;;;;;;;9.30;5.73;;;;;;;8.48;100.00;100235.94;5037693;28;20267;-73
2024/03/31 08:28:34;;;;;;;10.93;7.40;;;;;;;8.46;100.00;100219.25;5037721;28;20180;-73
2024/03/31 08:30:59;;;;;;;12.53;7.40;;;;;;;8.91;100.00;100299.84;5035479;28;20180;-73
2024/03/31 08:33:25;;;;;;;9.50;6.23;;;;;;;8.58;100.00;100227.53;5016938;28;20187;-73
2024/03/31 08:35:55;;;;;;;10.03;6.00;;;;;;;9.03;100.00;100297.41;5034756;28;20852;-73
2024/03/31 08:38:20;;;;;;;11.77;6.97;;;;;;;9.13;100.00;100303.19;5016815;28;20691;-73
2024/03/31 08:40:55;;;;;;;16.07;8.20;;;;;;;9.00;100.00;100313.88;5019446;28;20462;-73
2024/03/31 08:43:25;;;;;;;11.03;6.57;;;;;;;8.47;100.00;100234.28;5036542;28;20668;-73
2024/03/31 08:45:50;;;;;;;10.73;5.70;;;;;;;9.15;100.00;100317.19;5038414;28;20492;-73
2024/03/31 08:48:19;;;;;;;12.80;7.50;;;;;;;9.16;100.00;100329.53;5036616;28;20525;-73
2024/03/31 08:50:47;;;;;;;19.37;8.20;;;;;;;9.19;100.00;100323.78;5036768;28;20273;-72
2024/03/31 08:53:12;;;;;;;10.03;6.37;;;;;;;8.74;100.00;100243.22;5032238;28;20534;-73
2024/03/31 08:55:39;;;;;;;8.87;5.47;;;;;;;9.31;100.00;100315.97;5036869;28;20959;-73
2024/03/31 08:58:05;;;;;;;10.30;6.40;;;;;;;8.62;100.00;100198.53;5015280;28;20176;-73
2024/03/31 09:00:31;;;;;;;10.60;6.20;;;;;;;8.78;100.00;100231.09;5019331;28;20850;-73
2024/03/31 09:02:57;;;;;;;9.50;6.17;;;;;;;9.44;100.00;100305.31;5035256;28;20666;-73
2024/03/31 09:05:22;;;;;;;10.50;6.47;;;;;;;8.80;100.00;100204.16;5038442;28;20435;-73
2024/03/31 09:07:48;;;;;;;8.87;5.40;;;;;;;9.42;100.00;100307.34;5036530;28;20190;-73
2024/03/31 09:10:14;;;;;;;9.23;5.97;;;;;;;8.93;100.00;100188.13;5040012;28;20171;-73
2024/03/31 09:12:42;;;;;;;14.60;5.43;;;;;;;9.57;100.00;100276.88;5045567;28;20923;-73
2024/03/31 09:15:08;;;;;;;12.73;7.57;;;;;;;9.67;100.00;100288.84;5037003;28;20187;-73
2024/03/31 09:17:34;;;;;;;10.20;6.33;;;;;;;9.82;100.00;100291.31;5037632;28;20787;-73
2024/03/31 09:20:02;;;;;;;10.30;6.00;;;;;;;10.00;100.00;100290.66;5016451;28;20434;-73
2024/03/31 09:22:27;;;;;;;10.00;6.17;;;;;;;10.32;100.00;100280.13;5018499;28;20451;-73
2024/03/31 09:24:56;;;;;;;13.13;7.77;;;;;;;9.86;100.00;100179.22;5034736;28;20446;-73
2024/03/31 09:27:22;;;;;;;8.00;4.43;;;;;;;10.12;100.00;100211.28;5034988;28;20180;-73
2024/03/31 09:29:47;;;;;;;8.33;5.40;;;;;;;10.21;100.00;100221.75;5034303;28;20486;-73
2024/03/31 09:32:16;;;;;;;9.07;5.17;;;;;;;10.44;100.00;100242.75;5034603;28;20342;-73
2024/03/31 09:34:46;;;;;;;9.07;5.40;;;;;;;10.49;100.00;100254.47;5017060;28;20211;-73
2024/03/31 09:37:12;;;;;;;9.63;5.33;;;;;;;9.85;100.00;100146.25;5016519;28;20463;-73
2024/03/31 09:39:38;;;;;;;11.30;6.23;;;;;;;10.61;100.00;100238.53;5036240;28;20511;-73
2024/03/31 09:42:06;;;;;;;13.33;7.13;;;;;;;9.88;100.00;100124.38;5036110;28;20215;-73
2024/03/31 09:44:32;;;;;;;13.73;7.27;;;;;;;10.66;100.00;100219.97;5016415;28;20473;-73
2024/03/31 09:46:58;;;;;;;15.03;6.90;;;;;;;9.98;100.00;100137.34;5037172;28;20437;-73
2024/03/31 09:49:37;;;;;;;8.50;5.50;;;;;;;10.50;100.00;100229.34;5018165;28;20435;-73
2024/03/31 09:52:04;;;;;;;10.90;6.27;;;;;;;10.61;100.00;100228.63;5017222;28;20282;-73
2024/03/31 09:54:42;;;;;;;11.47;6.40;;;;;;;10.02;100.00;100133.22;5017062;28;20536;-73
2024/03/31 09:57:11;;;;;;;9.60;6.47;;;;;;;9.77;100.00;100100.94;5034353;28;20808;-73
2024/03/31 09:59:41;;;;;;;8.50;5.60;;;;;;;10.61;100.00;100220.59;5036156;28;20518;-73
2024/03/31 10:02:14;;;;;;;10.03;6.10;;;;;;;10.13;100.00;100137.91;5016236;28;20496;-73
2024/03/31 10:04:49;;;;;;;9.30;5.73;;;;;;;10.62;100.00;100219.56;5035497;28;20433;-73
2024/03/31 10:07:17;;;;;;;8.93;5.90;;;;;;;10.32;100.00;100172.88;5007774;28;20461;-73
2024/03/31 10:09:42;;;;;;;11.40;6.40;;;;;;;10.16;100.00;100126.75;5018281;28;20434;-73
2024/03/31 10:12:09;;;;;;;9.40;6.30;;;;;;;10.59;100.00;100201.22;5034619;28;20458;-73
2024/03/31 10:14:37;;;;;;;9.43;5.70;;;;;;;10.18;100.00;100105.09;5037143;28;20522;-73
2024/03/31 10:17:03;;;;;;;10.13;6.20;;;;;;;10.23;100.00;100093.75;5035272;28;20459;-73
2024/03/31 10:19:31;;;;;;;9.10;6.20;;;;;;;11.03;100.00;100156.56;5033417;28;20445;-73
2024/03/31 10:21:58;;;;;;;10.23;6.40;;;;;;;11.12;100.00;100142.88;5007644;28;20482;-73
2024/03/31 10:24:24;;;;;;;12.53;7.90;;;;;;;11.33;100.00;100118.31;5034663;28;20489;-73
2024/03/31 10:26:53;;;;;;;10.20;6.30;;;;;;;11.44;100.00;100116.78;5035333;28;20442;-73
2024/03/31 10:29:19;;;;;;;10.33;6.90;;;;;;;11.59;100.00;100111.03;5033848;28;20196;-73
2024/03/31 10:31:45;;;;;;;11.47;6.57;;;;;;;10.93;100.00;100005.16;5033318;28;20512;-73
2024/03/31 10:34:11;;;;;;;9.83;6.20;;;;;;;11.32;100.00;100057.63;5034477;28;20904;-73
2024/03/31 10:36:38;;;;;;;9.90;5.80;;;;;;;10.97;100.00;99996.44;5033583;28;20219;-72
2024/03/31 10:39:03;;;;;;;9.60;5.70;;;;;;;11.32;100.00;100023.53;5034734;28;20802;-74
2024/03/31 10:41:29;;;;;;;11.93;6.40;;;;;;;11.28;100.00;99987.47;5017401;28;20469;-73
2024/03/31 10:43:56;;;;;;;10.70;6.43;;;;;;;11.95;100.00;100083.38;5034365;28;20271;-73
2024/03/31 10:46:22;;;;;;;11.77;7.27;;;;;;;11.34;100.00;99960.72;5036687;28;20263;-74
2024/03/31 10:48:55;;;;;;;11.10;7.30;;;;;;;11.98;100.00;100054.19;5037714;28;20443;-74
2024/03/31 10:51:25;;;;;;;12.80;7.10;;;;;;;11.38;100.00;99965.44;5037065;28;21005;-74
2024/03/31 10:53:51;;;;;;;11.97;6.40;;;;;;;12.15;100.00;100048.16;5037590;28;20524;-74
2024/03/31 10:56:25;;;;;;;11.20;6.67;;;;;;;11.76;100.00;99965.16;5037490;28;20616;-74
2024/03/31 10:58:50;;;;;;;10.17;5.90;;;;;;;11.83;100.00;99966.91;5020630;28;20724;-74
2024/03/31 11:01:17;;;;;;;9.90;6.40;;;;;;;12.34;100.00;100020.16;5036608;28;20457;-74
2024/03/31 11:03:45;;;;;;;9.27;5.67;;;;;;;11.68;100.00;99903.66;5037753;28;20175;-74
2024/03/31 11:06:16;;;;;;;10.00;6.40;;;;;;;11.92;100.00;99911.84;5026261;28;20430;-74
2024/03/31 11:08:44;;;;;;;9.37;6.00;;;;;;;12.61;100.00;100006.28;5019002;28;20434;-74
2024/03/31 11:11:14;;;;;;;10.20;5.93;;;;;;;12.70;100.00;100004.91;5038018;28;20439;-74
2024/03/31 11:13:40;;;;;;;10.73;5.67;;;;;;;12.63;100.00;99985.34;5039092;28;20438;-74